Time;durP1;ratioP1;P1;durP2;ratioP2;P2;SDS_P1;SDS_P2;PMS_P1;PMS_P2;Temp;Humidity;BMP_temperature;BMP_pressure;BME280_temperature;BME280_humidity;BME280_pressure;Samples;Min_cycle;Max_cycle;Signal;HPM_P1;HPM_P2
2023/04/07 00:02:18;;;;;;;1.17;0.55;;;;;;;;;;5109610;28;20043;-78
2023/04/07 00:04:51;;;;;;;1.25;0.80;;;;;;;;;;5108993;28;20039;-76
2023/04/07 00:07:21;;;;;;;6.15;1.02;;;;;;;;;;5108269;28;20438;-75
2023/04/07 00:09:51;;;;;;;4.18;1.30;;;;;;;;;;5109222;28;20043;-74
2023/04/07 00:12:22;;;;;;;3.30;1.85;;;;;;;;;;5109427;28;20054;-76
2023/04/07 00:14:53;;;;;;;4.43;1.25;;;;;;;;;;5109192;28;20511;-75
2023/04/07 00:17:23;;;;;;;3.35;1.60;;;;;;;;;;5108974;28;20040;-76
2023/04/07 00:19:53;;;;;;;9.32;1.92;;;;;;;;;;5108901;28;20047;-75
2023/04/07 00:22:24;;;;;;;4.47;1.40;;;;;;;;;;5108561;28;20043;-76
2023/04/07 00:24:54;;;;;;;2.85;1.27;;;;;;;;;;5107975;28;20457;-76
2023/04/07 00:27:25;;;;;;;7.18;1.40;;;;;;;;;;5108849;28;20500;-75
2023/04/07 00:29:56;;;;;;;4.40;1.88;;;;;;;;;;5109219;28;20046;-76
2023/04/07 00:32:28;;;;;;;4.57;1.10;;;;;;;;;;5109707;28;20050;-76
2023/04/07 00:35:00;;;;;;;2.45;0.70;;;;;;;;;;5108902;28;20059;-75
2023/04/07 00:37:30;;;;;;;8.98;1.25;;;;;;;;;;5108537;28;20043;-76
2023/04/07 00:40:02;;;;;;;2.90;1.33;;;;;;;;;;5109608;28;20066;-76
2023/04/07 00:42:34;;;;;;;5.20;1.00;;;;;;;;;;5109021;28;20057;-76
2023/04/07 00:45:06;;;;;;;3.35;1.05;;;;;;;;;;5109038;28;20039;-76
2023/04/07 00:47:36;;;;;;;2.95;0.95;;;;;;;;;;5109033;28;20046;-76
2023/04/07 00:50:07;;;;;;;4.15;1.08;;;;;;;;;;5108193;28;20047;-76
2023/04/07 00:52:39;;;;;;;3.80;1.25;;;;;;;;;;5108823;28;20407;-76
2023/04/07 00:55:09;;;;;;;5.10;0.93;;;;;;;;;;5090329;28;20055;-76
2023/04/07 00:57:40;;;;;;;8.25;1.10;;;;;;;;;;5106760;28;20051;-75
2023/04/07 01:00:12;;;;;;;3.63;0.82;;;;;;;;;;5106843;27;20055;-76
2023/04/07 01:02:54;;;;;;;4.07;0.80;;;;;;;;;;5107364;28;20063;-76
2023/04/07 01:05:33;;;;;;;2.55;0.73;;;;;;;;;;5107451;27;20059;-75
2023/04/07 01:08:12;;;;;;;2.90;1.00;;;;;;;;;;5108915;28;20047;-76
2023/04/07 01:11:20;;;;;;;6.32;0.90;;;;;;;;;;5107219;27;20055;-74
2023/04/07 01:13:53;;;;;;;1.33;0.68;;;;;;;;;;5107334;27;20061;-75
2023/04/07 01:16:57;;;;;;;2.72;0.85;;;;;;;;;;5104046;28;20418;-75
2023/04/07 01:19:35;;;;;;;2.45;0.80;;;;;;;;;;5107068;27;20083;-74
2023/04/07 01:22:14;;;;;;;2.05;0.60;;;;;;;;;;5105810;27;20682;-74
2023/04/07 01:25:00;;;;;;;8.65;1.10;;;;;;;;;;5106596;27;20366;-74
2023/04/07 01:27:55;;;;;;;4.68;0.90;;;;;;;;;;5106948;27;20524;-74
2023/04/07 01:30:30;;;;;;;1.92;0.50;;;;;;;;;;5106922;28;20717;-75
2023/04/07 01:33:03;;;;;;;2.28;0.85;;;;;;;;;;5108021;28;20418;-75
2023/04/07 01:35:36;;;;;;;4.20;0.80;;;;;;;;;;5090697;28;20514;-74
2023/04/07 01:38:08;;;;;;;8.18;1.00;;;;;;;;;;5106762;27;20394;-76
2023/04/07 01:40:39;;;;;;;3.75;0.70;;;;;;;;;;5108202;28;20036;-75
2023/04/07 01:43:11;;;;;;;3.10;0.45;;;;;;;;;;5106706;27;20051;-72
2023/04/07 01:45:43;;;;;;;1.73;0.75;;;;;;;;;;5108202;28;20047;-75
2023/04/07 01:48:15;;;;;;;2.60;0.60;;;;;;;;;;5099170;27;20059;-74
2023/04/07 01:50:46;;;;;;;5.07;0.70;;;;;;;;;;5125946;27;20505;-79
2023/04/07 01:53:21;;;;;;;2.85;0.73;;;;;;;;;;5126492;27;20051;-75
2023/04/07 01:55:53;;;;;;;1.45;0.47;;;;;;;;;;5128361;27;20047;-75
2023/04/07 01:58:25;;;;;;;3.17;0.63;;;;;;;;;;5126554;27;20047;-75
2023/04/07 02:00:56;;;;;;;3.35;0.70;;;;;;;;;;5126640;27;20066;-75
2023/04/07 02:03:34;;;;;;;9.07;1.90;;;;;;;;;;5126740;27;20066;-75
2023/04/07 02:06:07;;;;;;;4.57;0.70;;;;;;;;;;5108925;27;20436;-75
2023/04/07 02:08:44;;;;;;;1.33;0.50;;;;;;;;;;5126242;27;20062;-75
2023/04/07 02:11:17;;;;;;;4.90;0.52;;;;;;;;;;5126108;27;20047;-75
2023/04/07 02:13:54;;;;;;;4.10;0.60;;;;;;;;;;5126206;27;20051;-75
2023/04/07 02:16:29;;;;;;;4.35;0.70;;;;;;;;;;5125994;27;20055;-74
2023/04/07 02:19:02;;;;;;;0.95;0.52;;;;;;;;;;5125739;27;20043;-74
2023/04/07 02:21:35;;;;;;;2.15;0.52;;;;;;;;;;5127847;27;21189;-74
2023/04/07 02:24:06;;;;;;;2.03;0.63;;;;;;;;;;5127735;27;20055;-74
2023/04/07 02:26:37;;;;;;;2.00;0.50;;;;;;;;;;5129118;27;20389;-74
2023/04/07 02:29:07;;;;;;;4.20;0.75;;;;;;;;;;5127847;27;20031;-75
2023/04/07 02:31:37;;;;;;;2.85;0.52;;;;;;;;;;5126137;27;20047;-76
2023/04/07 02:34:08;;;;;;;3.90;0.95;;;;;;;;;;5109257;27;20051;-76
2023/04/07 02:36:40;;;;;;;5.45;1.13;;;;;;;;;;5125473;27;20051;-74
2023/04/07 02:39:10;;;;;;;9.82;1.45;;;;;;;;;;5127161;27;20043;-74
2023/04/07 02:41:41;;;;;;;4.22;0.90;;;;;;;;;;5128162;27;20061;-73
2023/04/07 02:44:11;;;;;;;9.05;0.90;;;;;;;;;;5127960;27;20051;-74
2023/04/07 02:46:43;;;;;;;5.97;1.08;;;;;;;;;;5127504;27;20062;-74
2023/04/07 02:49:15;;;;;;;3.53;0.82;;;;;;;;;;5127253;27;20074;-75
2023/04/07 02:51:45;;;;;;;4.90;0.80;;;;;;;;;;5127474;27;20042;-75
2023/04/07 02:54:16;;;;;;;4.38;0.75;;;;;;;;;;5127523;27;20039;-74
2023/04/07 02:56:48;;;;;;;3.33;0.57;;;;;;;;;;5125181;28;20055;-74
2023/04/07 02:59:19;;;;;;;4.97;0.63;;;;;;;;;;5126692;28;20047;-77
2023/04/07 03:01:49;;;;;;;2.97;0.50;;;;;;;;;;5127906;28;20039;-74
2023/04/07 03:04:20;;;;;;;4.75;0.60;;;;;;;;;;5125162;28;20059;-75
2023/04/07 03:06:51;;;;;;;2.83;0.55;;;;;;;;;;5126954;28;20058;-75
2023/04/07 03:09:22;;;;;;;4.40;0.50;;;;;;;;;;5127169;28;20035;-74
2023/04/07 03:11:57;;;;;;;2.28;0.60;;;;;;;;;;5126003;28;20047;-74
2023/04/07 03:14:31;;;;;;;2.05;0.32;;;;;;;;;;5109229;28;20043;-74
2023/04/07 03:17:05;;;;;;;4.30;0.45;;;;;;;;;;5126393;27;20133;-74
2023/04/07 03:19:36;;;;;;;3.95;0.60;;;;;;;;;;5129287;27;20057;-75
2023/04/07 03:22:06;;;;;;;4.13;0.60;;;;;;;;;;5131265;27;20043;-75
2023/04/07 03:24:41;;;;;;;0.82;0.40;;;;;;;;;;5129039;27;20059;-75
2023/04/07 03:27:13;;;;;;;2.80;0.50;;;;;;;;;;5129368;27;20051;-75
2023/04/07 03:29:47;;;;;;;6.20;0.73;;;;;;;;;;5129393;27;20409;-75
2023/04/07 03:32:18;;;;;;;2.67;0.50;;;;;;;;;;5129302;27;20513;-75
2023/04/07 03:34:48;;;;;;;11.15;0.80;;;;;;;;;;5128786;27;20047;-75
2023/04/07 03:37:18;;;;;;;2.38;0.45;;;;;;;;;;5129147;27;20051;-75
2023/04/07 03:39:49;;;;;;;2.17;0.43;;;;;;;;;;5128670;27;20403;-75
2023/04/07 03:42:26;;;;;;;1.25;0.35;;;;;;;;;;5113308;27;20051;-75
2023/04/07 03:45:02;;;;;;;0.52;0.43;;;;;;;;;;5128972;27;20058;-75
2023/04/07 03:47:35;;;;;;;4.00;0.50;;;;;;;;;;5128875;27;20047;-75
2023/04/07 03:50:07;;;;;;;5.50;0.70;;;;;;;;;;5129360;27;20051;-76
2023/04/07 03:52:56;;;;;;;2.35;0.63;;;;;;;;;;5129688;27;20054;-75
2023/04/07 03:55:30;;;;;;;4.40;0.77;;;;;;;;;;5128594;27;20409;-75
2023/04/07 03:58:10;;;;;;;5.63;0.80;;;;;;;;;;5130239;27;20053;-75
2023/04/07 04:00:41;;;;;;;4.43;0.80;;;;;;;;;;5128928;27;20062;-75
2023/04/07 04:03:12;;;;;;;3.28;1.38;;;;;;;;;;5129425;27;20047;-75
2023/04/07 04:05:53;;;;;;;1.00;0.70;;;;;;;;;;5128318;27;20050;-75
2023/04/07 04:08:29;;;;;;;3.88;0.80;;;;;;;;;;5129025;27;20548;-75
2023/04/07 04:10:59;;;;;;;3.97;0.82;;;;;;;;;;5127960;27;20054;-75
2023/04/07 04:13:37;;;;;;;4.13;0.90;;;;;;;;;;5128245;27;20062;-75
2023/04/07 04:16:07;;;;;;;0.93;0.60;;;;;;;;;;5130504;27;20042;-75
2023/04/07 04:18:41;;;;;;;4.90;0.95;;;;;;;;;;5128153;27;20047;-75
2023/04/07 04:21:15;;;;;;;1.58;0.68;;;;;;;;;;5111871;27;20164;-75
2023/04/07 04:23:46;;;;;;;4.40;0.73;;;;;;;;;;5127870;27;20051;-75
2023/04/07 04:26:17;;;;;;;3.85;0.90;;;;;;;;;;5129132;27;20054;-74
2023/04/07 04:28:49;;;;;;;2.80;0.77;;;;;;;;;;5127660;27;20051;-75
2023/04/07 04:31:21;;;;;;;4.15;0.63;;;;;;;;;;5128979;27;20058;-74
2023/04/07 04:33:52;;;;;;;3.75;0.88;;;;;;;;;;5128293;27;20047;-74
2023/04/07 04:36:25;;;;;;;2.40;0.63;;;;;;;;;;5127861;27;20039;-75
2023/04/07 04:39:02;;;;;;;1.52;0.80;;;;;;;;;;5128124;27;20055;-74
2023/04/07 04:41:35;;;;;;;1.88;0.80;;;;;;;;;;5127917;27;20040;-75
2023/04/07 04:44:06;;;;;;;2.00;1.10;;;;;;;;;;5127756;27;20536;-75
2023/04/07 04:46:37;;;;;;;4.97;1.13;;;;;;;;;;5128062;27;20051;-75
2023/04/07 04:49:09;;;;;;;4.07;0.80;;;;;;;;;;5126681;27;20055;-75
2023/04/07 04:51:40;;;;;;;1.40;0.77;;;;;;;;;;5127047;27;20402;-75
2023/04/07 04:54:18;;;;;;;4.10;0.77;;;;;;;;;;5127996;27;20051;-75
2023/04/07 04:56:48;;;;;;;2.00;0.90;;;;;;;;;;5127862;27;20058;-75
2023/04/07 04:59:22;;;;;;;6.07;1.50;;;;;;;;;;5127459;27;20043;-75
2023/04/07 05:01:58;;;;;;;8.07;1.15;;;;;;;;;;5127334;27;20055;-75
2023/04/07 05:04:28;;;;;;;3.33;0.73;;;;;;;;;;5127731;27;20051;-74
2023/04/07 05:07:13;;;;;;;4.15;0.70;;;;;;;;;;5112900;27;20505;-75
2023/04/07 05:09:45;;;;;;;4.82;0.85;;;;;;;;;;5127129;27;20043;-75
2023/04/07 05:12:17;;;;;;;2.97;0.70;;;;;;;;;;5127124;27;20043;-74
2023/04/07 05:14:52;;;;;;;2.80;0.90;;;;;;;;;;5127473;27;20046;-75
2023/04/07 05:17:22;;;;;;;8.40;0.90;;;;;;;;;;5129449;27;20046;-75
2023/04/07 05:19:52;;;;;;;1.83;0.70;;;;;;;;;;5127631;27;20074;-75
2023/04/07 05:22:35;;;;;;;2.67;0.75;;;;;;;;;;5126799;27;20055;-75
2023/04/07 05:25:08;;;;;;;4.75;0.90;;;;;;;;;;5126819;27;20051;-74
2023/04/07 05:27:40;;;;;;;7.80;0.90;;;;;;;;;;5126915;27;20055;-75
2023/04/07 05:30:15;;;;;;;8.65;0.93;;;;;;;;;;5127048;27;20544;-75
2023/04/07 05:32:46;;;;;;;7.05;1.05;;;;;;;;;;5126971;27;20540;-75
2023/04/07 05:35:24;;;;;;;2.40;0.77;;;;;;;;;;5126904;27;20055;-75
2023/04/07 05:37:56;;;;;;;3.88;0.80;;;;;;;;;;5126720;27;20058;-75
2023/04/07 05:40:29;;;;;;;4.75;0.85;;;;;;;;;;5126215;27;20524;-75
2023/04/07 05:43:04;;;;;;;3.45;0.82;;;;;;;;;;5127266;27;20047;-75
2023/04/07 05:45:35;;;;;;;3.63;1.20;;;;;;;;;;5127336;27;20047;-74
2023/04/07 05:48:06;;;;;;;4.03;1.02;;;;;;;;;;5126750;27;20055;-75
2023/04/07 05:50:42;;;;;;;;;;;;;;;;;;5127037;27;20062;-75
2023/04/07 05:53:16;;;;;;;2.97;0.93;;;;;;;;;;5127054;27;19927;-75
2023/04/07 05:55:47;;;;;;;4.20;1.10;;;;;;;;;;5128876;27;20043;-74
2023/04/07 05:58:57;;;;;;;7.05;1.50;;;;;;;;;;5084491;28;20502;-75
2023/04/07 06:01:29;;;;;;;6.18;1.00;;;;;;;;;;5067049;28;20051;-75
2023/04/07 06:04:02;;;;;;;4.38;1.10;;;;;;;;;;5097968;27;20047;-75
2023/04/07 06:06:32;;;;;;;7.65;1.10;;;;;;;;;;5128674;27;20050;-75
2023/04/07 06:09:02;;;;;;;6.63;1.10;;;;;;;;;;5126128;27;20489;-75
2023/04/07 06:11:35;;;;;;;3.25;1.02;;;;;;;;;;5126788;27;20432;-75
2023/04/07 06:14:06;;;;;;;3.72;1.33;;;;;;;;;;5126353;27;20394;-75
2023/04/07 06:16:38;;;;;;;5.28;1.05;;;;;;;;;;5128066;27;20516;-75
2023/04/07 06:19:08;;;;;;;6.85;1.00;;;;;;;;;;5128071;27;20512;-75
2023/04/07 06:21:38;;;;;;;2.70;1.10;;;;;;;;;;5126667;27;20058;-75
2023/04/07 06:24:08;;;;;;;4.45;1.10;;;;;;;;;;5128480;27;20466;-75
2023/04/07 06:26:40;;;;;;;11.27;1.42;;;;;;;;;;5127736;27;20043;-75
2023/04/07 06:29:12;;;;;;;8.15;1.50;;;;;;;;;;5127976;27;20058;-75
2023/04/07 06:31:43;;;;;;;5.28;1.15;;;;;;;;;;5125911;27;20055;-75
2023/04/07 06:34:15;;;;;;;5.72;1.30;;;;;;;;;;5127667;27;20057;-75
2023/04/07 06:36:46;;;;;;;7.93;1.33;;;;;;;;;;5128423;27;20055;-75
2023/04/07 06:39:16;;;;;;;6.80;1.35;;;;;;;;;;5127924;27;20062;-75
2023/04/07 06:41:48;;;;;;;5.00;1.40;;;;;;;;;;5127416;27;20523;-75
2023/04/07 06:44:18;;;;;;;11.57;1.60;;;;;;;;;;5127175;27;20054;-75
2023/04/07 06:46:52;;;;;;;8.57;1.50;;;;;;;;;;5127421;27;20042;-75
2023/04/07 06:49:22;;;;;;;9.65;1.33;;;;;;;;;;5127283;27;20054;-74
2023/04/07 06:51:52;;;;;;;2.63;1.20;;;;;;;;;;5127390;27;20051;-74
2023/04/07 06:54:22;;;;;;;5.93;1.30;;;;;;;;;;5127296;27;20043;-75
2023/04/07 06:56:53;;;;;;;7.68;1.35;;;;;;;;;;5126968;28;20540;-75
2023/04/07 06:59:23;;;;;;;5.80;1.30;;;;;;;;;;5126232;28;20057;-74
2023/04/07 07:01:53;;;;;;;3.17;1.30;;;;;;;;;;5127772;28;20051;-75
2023/04/07 07:04:24;;;;;;;2.55;1.13;;;;;;;;;;5127450;28;20043;-75
2023/04/07 07:06:55;;;;;;;10.68;1.30;;;;;;;;;;5126815;28;20074;-75
2023/04/07 07:09:26;;;;;;;37.53;3.00;;;;;;;;;;5125019;28;20054;-75
2023/04/07 07:11:56;;;;;;;6.05;1.77;;;;;;;;;;5127215;28;20059;-74
2023/04/07 07:14:29;;;;;;;5.95;1.52;;;;;;;;;;5127040;28;20047;-75
2023/04/07 07:16:59;;;;;;;5.78;1.60;;;;;;;;;;5126738;28;20043;-75
2023/04/07 07:19:31;;;;;;;4.65;1.33;;;;;;;;;;5127319;28;20058;-75
2023/04/07 07:22:03;;;;;;;3.53;1.48;;;;;;;;;;5127093;28;20047;-75
2023/04/07 07:24:33;;;;;;;5.25;1.13;;;;;;;;;;5127268;28;20070;-75
2023/04/07 07:27:03;;;;;;;5.82;1.30;;;;;;;;;;5126926;27;20433;-75
2023/04/07 07:29:34;;;;;;;4.43;1.10;;;;;;;;;;5126932;28;20039;-75
2023/04/07 07:32:04;;;;;;;4.45;1.10;;;;;;;;;;5126779;28;20528;-75
2023/04/07 07:34:35;;;;;;;9.57;1.42;;;;;;;;;;5127034;28;20501;-75
2023/04/07 07:37:08;;;;;;;5.30;1.17;;;;;;;;;;5126059;28;20526;-75
2023/04/07 07:39:39;;;;;;;7.72;1.55;;;;;;;;;;5126864;28;20513;-74
2023/04/07 07:42:09;;;;;;;5.95;1.58;;;;;;;;;;5125406;28;20051;-75
2023/04/07 07:44:39;;;;;;;4.82;1.30;;;;;;;;;;5127233;28;20043;-74
2023/04/07 07:47:11;;;;;;;4.75;1.25;;;;;;;;;;5126881;28;20043;-75
2023/04/07 07:49:41;;;;;;;6.72;1.05;;;;;;;;;;5126698;28;20051;-74
2023/04/07 07:52:11;;;;;;;11.65;1.40;;;;;;;;;;5127286;28;20405;-75
2023/04/07 07:54:41;;;;;;;3.22;0.90;;;;;;;;;;5127085;28;20054;-75
2023/04/07 07:57:11;;;;;;;2.63;0.82;;;;;;;;;;5126176;28;20047;-75
2023/04/07 07:59:41;;;;;;;4.30;0.93;;;;;;;;;;5126640;28;20066;-75
2023/04/07 08:02:11;;;;;;;5.07;1.13;;;;;;;;;;5126634;27;20615;-75
2023/04/07 08:04:45;;;;;;;3.70;1.00;;;;;;;;;;5130730;27;20061;-75
2023/04/07 08:07:16;;;;;;;4.65;1.10;;;;;;;;;;5130117;27;20062;-74
2023/04/07 08:09:49;;;;;;;6.13;1.13;;;;;;;;;;5130210;27;20043;-74
2023/04/07 08:12:19;;;;;;;6.00;0.90;;;;;;;;;;5130065;27;20527;-74
2023/04/07 08:14:50;;;;;;;3.65;1.00;;;;;;;;;;5130509;27;20047;-74
2023/04/07 08:17:20;;;;;;;3.88;1.02;;;;;;;;;;5129005;27;20058;-74
2023/04/07 08:19:51;;;;;;;4.22;1.10;;;;;;;;;;5130538;27;20051;-75
2023/04/07 08:22:22;;;;;;;2.90;0.73;;;;;;;;;;5128321;27;20429;-74
2023/04/07 08:24:53;;;;;;;3.80;1.00;;;;;;;;;;5129979;27;20096;-74
2023/04/07 08:27:25;;;;;;;5.30;1.33;;;;;;;;;;5128947;27;20046;-74
2023/04/07 08:30:04;;;;;;;5.28;1.00;;;;;;;;;;5130427;27;20046;-74
2023/04/07 08:32:35;;;;;;;2.03;1.10;;;;;;;;;;5129776;27;20043;-74
2023/04/07 08:35:06;;;;;;;6.18;1.27;;;;;;;;;;5129984;27;20051;-74
2023/04/07 08:37:38;;;;;;;7.07;0.85;;;;;;;;;;5130629;27;20047;-75
2023/04/07 08:40:09;;;;;;;5.53;0.95;;;;;;;;;;5129988;27;20043;-75
2023/04/07 08:42:46;;;;;;;1.25;0.70;;;;;;;;;;5130167;27;20513;-75
2023/04/07 08:45:18;;;;;;;4.40;0.88;;;;;;;;;;5130121;27;20046;-75
2023/04/07 08:47:55;;;;;;;7.03;1.40;;;;;;;;;;5130063;27;20042;-74
2023/04/07 08:50:27;;;;;;;4.20;0.97;;;;;;;;;;5129591;27;20497;-74
2023/04/07 08:53:03;;;;;;;1.95;0.90;;;;;;;;;;5129684;27;20246;-74
2023/04/07 08:55:36;;;;;;;1.80;0.80;;;;;;;;;;5128976;27;20065;-74
2023/04/07 08:58:12;;;;;;;2.30;1.08;;;;;;;;;;5129236;27;20543;-74
2023/04/07 09:00:47;;;;;;;5.45;1.33;;;;;;;;;;5128986;27;20047;-74
2023/04/07 09:03:20;;;;;;;6.50;1.08;;;;;;;;;;5129646;27;20051;-74
2023/04/07 09:05:51;;;;;;;2.95;0.90;;;;;;;;;;5129105;27;20055;-74
2023/04/07 09:08:22;;;;;;;2.65;0.98;;;;;;;;;;5129281;27;20333;-74
2023/04/07 09:10:53;;;;;;;7.47;0.90;;;;;;;;;;5129685;27;20058;-75
2023/04/07 09:13:26;;;;;;;4.40;1.13;;;;;;;;;;5129428;27;20039;-75
2023/04/07 09:16:01;;;;;;;4.00;1.00;;;;;;;;;;5128119;27;20478;-75
2023/04/07 09:18:32;;;;;;;1.77;0.95;;;;;;;;;;5127559;27;20050;-74
2023/04/07 09:21:04;;;;;;;4.20;1.10;;;;;;;;;;5129607;27;20047;-74
2023/04/07 09:23:37;;;;;;;1.25;0.80;;;;;;;;;;5129374;27;20051;-74
2023/04/07 09:26:28;;;;;;;2.58;0.80;;;;;;;;;;5129214;27;20043;-74
2023/04/07 09:29:06;;;;;;;2.90;0.80;;;;;;;;;;5128820;27;20047;-74
2023/04/07 09:31:51;;;;;;;1.20;0.77;;;;;;;;;;5128934;27;20054;-74
2023/04/07 09:34:31;;;;;;;3.75;0.80;;;;;;;;;;5129415;27;20047;-74
2023/04/07 09:37:03;;;;;;;3.92;0.90;;;;;;;;;;5128397;27;20053;-74
2023/04/07 09:39:33;;;;;;;6.10;1.13;;;;;;;;;;5128658;27;20050;-75
2023/04/07 09:42:06;;;;;;;5.55;1.77;;;;;;;;;;5127365;27;20058;-75
2023/04/07 09:44:40;;;;;;;9.00;1.20;;;;;;;;;;5128872;27;20047;-75
2023/04/07 09:47:11;;;;;;;3.78;1.00;;;;;;;;;;5128389;27;20505;-74
2023/04/07 09:49:51;;;;;;;2.63;0.98;;;;;;;;;;5128538;27;20051;-74
2023/04/07 09:52:53;;;;;;;6.47;1.05;;;;;;;;;;5128021;27;20144;-74
2023/04/07 09:55:24;;;;;;;2.10;1.02;;;;;;;;;;5128665;27;20046;-74
2023/04/07 09:57:55;;;;;;;3.90;0.88;;;;;;;;;;5126613;27;20051;-74
2023/04/07 10:00:27;;;;;;;3.80;0.95;;;;;;;;;;5128841;27;20047;-75
2023/04/07 10:02:58;;;;;;;2.42;0.98;;;;;;;;;;5127007;27;20062;-74
2023/04/07 10:05:30;;;;;;;5.18;1.08;;;;;;;;;;5127885;27;20417;-74
2023/04/07 10:08:01;;;;;;;8.18;0.80;;;;;;;;;;5128032;27;20047;-74
2023/04/07 10:10:32;;;;;;;5.05;0.88;;;;;;;;;;5125856;27;20053;-74
2023/04/07 10:13:05;;;;;;;2.10;0.77;;;;;;;;;;5128310;27;20058;-74
2023/04/07 10:15:36;;;;;;;3.97;0.95;;;;;;;;;;5126524;27;20062;-74
2023/04/07 10:18:08;;;;;;;2.38;0.95;;;;;;;;;;5128177;27;20046;-74
2023/04/07 10:20:43;;;;;;;2.83;0.93;;;;;;;;;;5127669;27;20047;-74
2023/04/07 10:23:21;;;;;;;2.45;0.93;;;;;;;;;;5128300;27;20047;-75
2023/04/07 10:25:55;;;;;;;1.45;0.60;;;;;;;;;;5127752;27;20050;-74
2023/04/07 10:28:28;;;;;;;5.47;1.25;;;;;;;;;;5128332;27;20039;-74
2023/04/07 10:30:59;;;;;;;1.73;1.00;;;;;;;;;;5127658;27;20061;-74
2023/04/07 10:33:48;;;;;;;5.68;0.80;;;;;;;;;;5127112;27;20074;-75
2023/04/07 10:36:20;;;;;;;3.15;1.08;;;;;;;;;;5127788;27;20054;-75
2023/04/07 10:39:09;;;;;;;11.82;1.73;;;;;;;;;;5127567;27;20043;-75
2023/04/07 10:41:41;;;;;;;6.65;1.20;;;;;;;;;;5127919;27;20061;-74
2023/04/07 10:44:40;;;;;;;6.68;1.30;;;;;;;;;;5128129;27;20366;-75
2023/04/07 10:47:11;;;;;;;4.90;1.13;;;;;;;;;;5127845;27;20047;-75
2023/04/07 10:50:17;;;;;;;6.18;0.95;;;;;;;;;;5127640;27;20043;-76
2023/04/07 10:53:11;;;;;;;6.80;0.90;;;;;;;;;;5127712;27;20047;-74
2023/04/07 10:55:45;;;;;;;6.97;1.10;;;;;;;;;;5122171;27;20054;-75
2023/04/07 10:58:19;;;;;;;9.57;1.33;;;;;;;;;;5106958;28;20051;-74
2023/04/07 11:01:00;;;;;;;2.83;0.85;;;;;;;;;;5106564;28;20513;-74
2023/04/07 11:03:37;;;;;;;11.75;1.13;;;;;;;;;;5106850;28;20405;-74
2023/04/07 11:06:12;;;;;;;8.93;0.90;;;;;;;;;;5106618;28;20418;-73
2023/04/07 11:08:44;;;;;;;1.42;0.60;;;;;;;;;;5105721;28;20055;-74
2023/04/07 11:11:36;;;;;;;7.50;4.10;;;;;;;;;;5107242;28;20036;-74
2023/04/07 11:14:07;;;;;;;0.82;0.70;;;;;;;;;;5106544;28;20047;-74
2023/04/07 11:16:40;;;;;;;5.38;0.80;;;;;;;;;;5106495;28;20047;-74
2023/04/07 11:19:12;;;;;;;2.42;0.70;;;;;;;;;;5105714;28;20067;-74
2023/04/07 11:21:45;;;;;;;5.47;0.88;;;;;;;;;;5106788;28;20043;-74
2023/04/07 11:24:38;;;;;;;5.80;1.73;;;;;;;;;;5106974;28;20109;-74
2023/04/07 11:27:15;;;;;;;3.88;0.38;;;;;;;;;;5106554;28;20050;-74
2023/04/07 11:29:45;;;;;;;3.55;0.82;;;;;;;;;;5106829;28;20530;-75
2023/04/07 11:32:17;;;;;;;1.10;0.60;;;;;;;;;;5105598;28;20055;-74
2023/04/07 11:34:49;;;;;;;1.42;0.57;;;;;;;;;;5106045;28;20052;-73
2023/04/07 11:37:27;;;;;;;4.03;0.70;;;;;;;;;;5105614;28;20048;-74
2023/04/07 11:39:58;;;;;;;0.60;0.40;;;;;;;;;;5109926;28;20043;-74
2023/04/07 11:42:37;;;;;;;4.70;0.85;;;;;;;;;;5112926;27;20461;-74
2023/04/07 11:45:20;;;;;;;8.73;0.98;;;;;;;;;;5119232;27;20497;-73
2023/04/07 11:47:52;;;;;;;1.58;0.50;;;;;;;;;;5116431;27;20048;-74
2023/04/07 11:50:41;;;;;;;1.10;0.40;;;;;;;;;;5117663;27;20051;-74
2023/04/07 11:53:13;;;;;;;1.02;0.80;;;;;;;;;;5110045;28;20048;-75
2023/04/07 11:55:45;;;;;;;1.45;0.40;;;;;;;;;;5109529;28;20052;-74
2023/04/07 11:58:15;;;;;;;3.13;0.60;;;;;;;;;;5109206;27;20047;-73
2023/04/07 12:00:55;;;;;;;1.58;0.40;;;;;;;;;;5115408;27;20043;-74
2023/04/07 12:03:27;;;;;;;3.03;0.50;;;;;;;;;;5125773;27;20084;-75
2023/04/07 12:05:58;;;;;;;1.23;0.50;;;;;;;;;;5130763;27;20436;-75
2023/04/07 12:08:42;;;;;;;3.03;0.40;;;;;;;;;;5129804;27;20050;-75
2023/04/07 12:11:13;;;;;;;2.30;0.30;;;;;;;;;;5113352;27;20040;-75
2023/04/07 12:13:44;;;;;;;2.83;0.43;;;;;;;;;;5122842;27;20058;-75
2023/04/07 12:16:16;;;;;;;1.00;0.50;;;;;;;;;;5130781;27;20055;-75
2023/04/07 12:18:47;;;;;;;1.70;0.47;;;;;;;;;;5125194;27;20094;-75
2023/04/07 12:21:17;;;;;;;1.42;0.50;;;;;;;;;;5109256;28;20051;-75
2023/04/07 12:23:48;;;;;;;1.20;0.43;;;;;;;;;;5118771;27;20050;-74
2023/04/07 12:26:20;;;;;;;0.55;0.40;;;;;;;;;;5109818;28;20051;-74
2023/04/07 12:28:52;;;;;;;1.00;0.50;;;;;;;;;;5107941;28;20417;-74
2023/04/07 12:31:22;;;;;;;0.50;0.40;;;;;;;;;;5109484;28;20031;-74
2023/04/07 12:33:53;;;;;;;1.50;0.40;;;;;;;;;;5109210;28;20465;-74
2023/04/07 12:36:26;;;;;;;3.92;0.47;;;;;;;;;;5109130;28;20767;-74
2023/04/07 12:38:57;;;;;;;1.70;0.30;;;;;;;;;;5122192;27;20043;-74
2023/04/07 12:41:28;;;;;;;4.00;0.70;;;;;;;;;;5127499;27;20535;-76
2023/04/07 12:43:58;;;;;;;1.10;0.52;;;;;;;;;;5117222;27;20422;-75
2023/04/07 12:46:29;;;;;;;4.20;0.60;;;;;;;;;;5109070;28;20055;-75
2023/04/07 12:48:59;;;;;;;1.00;0.77;;;;;;;;;;5108515;28;20050;-76
2023/04/07 12:51:32;;;;;;;1.95;0.60;;;;;;;;;;5109353;28;20051;-74
2023/04/07 12:54:03;;;;;;;1.10;0.60;;;;;;;;;;5109545;27;20048;-75
2023/04/07 12:56:34;;;;;;;1.58;0.80;;;;;;;;;;5111808;27;20035;-76
2023/04/07 12:59:05;;;;;;;2.60;0.80;;;;;;;;;;5129056;27;20051;-75
2023/04/07 13:01:35;;;;;;;1.58;0.73;;;;;;;;;;5129045;27;20050;-75
2023/04/07 13:04:08;;;;;;;9.30;1.02;;;;;;;;;;5129012;27;20043;-74
2023/04/07 13:06:38;;;;;;;6.38;0.82;;;;;;;;;;5128689;27;20760;-75
2023/04/07 13:09:08;;;;;;;6.05;0.95;;;;;;;;;;5129117;27;20043;-75
2023/04/07 13:11:38;;;;;;;4.97;0.88;;;;;;;;;;5128585;27;20043;-75
2023/04/07 13:14:09;;;;;;;2.63;0.70;;;;;;;;;;5128828;27;20057;-75
2023/04/07 13:16:43;;;;;;;3.20;0.50;;;;;;;;;;5128951;27;20039;-75
2023/04/07 13:19:15;;;;;;;0.70;0.40;;;;;;;;;;5128954;27;20050;-77
2023/04/07 13:21:45;;;;;;;3.03;0.55;;;;;;;;;;5128368;27;20047;-75
2023/04/07 13:24:16;;;;;;;0.88;0.50;;;;;;;;;;5123726;27;20494;-75
2023/04/07 13:26:47;;;;;;;0.77;0.50;;;;;;;;;;5108286;28;20110;-74
2023/04/07 13:29:18;;;;;;;1.20;0.40;;;;;;;;;;5114130;27;20121;-75
2023/04/07 13:31:48;;;;;;;2.63;0.70;;;;;;;;;;5114601;27;20047;-74
2023/04/07 13:34:18;;;;;;;0.77;0.47;;;;;;;;;;5112155;27;20039;-74
2023/04/07 13:36:49;;;;;;;0.75;0.60;;;;;;;;;;5125055;27;20055;-74
2023/04/07 13:39:20;;;;;;;0.43;0.40;;;;;;;;;;5132178;27;20055;-74
2023/04/07 13:41:51;;;;;;;1.88;0.57;;;;;;;;;;5118447;27;20048;-73
2023/04/07 13:44:21;;;;;;;2.88;0.60;;;;;;;;;;5109848;27;20048;-74
2023/04/07 13:46:52;;;;;;;0.88;0.55;;;;;;;;;;5090020;28;20133;-74
2023/04/07 13:49:22;;;;;;;2.97;0.75;;;;;;;;;;5112090;27;20051;-74
2023/04/07 13:51:55;;;;;;;1.05;0.63;;;;;;;;;;5108155;28;20070;-74
2023/04/07 13:54:25;;;;;;;2.53;0.63;;;;;;;;;;5120300;27;20051;-76
2023/04/07 13:56:56;;;;;;;0.98;0.50;;;;;;;;;;5113483;27;20036;-74
2023/04/07 13:59:26;;;;;;;2.50;0.80;;;;;;;;;;5109518;27;20047;-76
2023/04/07 14:01:57;;;;;;;2.72;0.80;;;;;;;;;;5115345;27;20052;-74
2023/04/07 14:04:28;;;;;;;1.38;0.63;;;;;;;;;;5113278;27;20047;-75
2023/04/07 14:06:59;;;;;;;0.38;0.38;;;;;;;;;;5113286;27;20537;-75
2023/04/07 14:09:30;;;;;;;3.15;1.02;;;;;;;;;;5113875;27;20043;-75
2023/04/07 14:12:01;;;;;;;4.95;0.80;;;;;;;;;;5109763;27;20047;-75
2023/04/07 14:14:31;;;;;;;2.55;0.50;;;;;;;;;;5112995;27;20043;-77
2023/04/07 14:17:01;;;;;;;1.95;0.85;;;;;;;;;;5114711;27;20039;-75
2023/04/07 14:19:35;;;;;;;0.85;0.43;;;;;;;;;;5116794;27;20485;-76
2023/04/07 14:22:06;;;;;;;1.17;0.75;;;;;;;;;;5115831;27;20032;-75
2023/04/07 14:24:40;;;;;;;0.73;0.52;;;;;;;;;;5112308;27;20047;-75
2023/04/07 14:27:11;;;;;;;3.40;0.60;;;;;;;;;;5108744;27;20091;-75
2023/04/07 14:29:41;;;;;;;1.30;0.63;;;;;;;;;;5124025;27;20055;-74
2023/04/07 14:32:12;;;;;;;0.73;0.65;;;;;;;;;;5125151;27;20051;-75
2023/04/07 14:34:46;;;;;;;3.00;0.70;;;;;;;;;;5127858;27;20092;-74
2023/04/07 14:37:17;;;;;;;1.65;0.75;;;;;;;;;;5110699;27;20055;-75
2023/04/07 14:39:47;;;;;;;0.95;0.70;;;;;;;;;;5108698;27;20046;-75
2023/04/07 14:42:32;;;;;;;1.08;0.50;;;;;;;;;;5128070;27;20039;-75
2023/04/07 14:45:03;;;;;;;2.58;0.60;;;;;;;;;;5123682;27;20547;-74
2023/04/07 14:47:33;;;;;;;2.60;0.40;;;;;;;;;;5127176;27;20047;-74
2023/04/07 14:50:03;;;;;;;2.05;0.55;;;;;;;;;;5126960;27;20039;-75
2023/04/07 14:52:33;;;;;;;0.98;0.65;;;;;;;;;;5127893;27;20062;-75
2023/04/07 14:55:06;;;;;;;1.00;0.52;;;;;;;;;;5127271;28;20058;-74
2023/04/07 14:57:37;;;;;;;1.45;0.60;;;;;;;;;;5126383;27;20520;-76
2023/04/07 15:00:08;;;;;;;0.52;0.52;;;;;;;;;;5127085;28;20058;-74
2023/04/07 15:02:39;;;;;;;2.10;0.60;;;;;;;;;;5127595;28;20057;-74
2023/04/07 15:05:12;;;;;;;0.88;0.60;;;;;;;;;;5127279;28;20066;-75
2023/04/07 15:07:44;;;;;;;1.02;0.43;;;;;;;;;;5127073;28;20051;-77
2023/04/07 15:10:17;;;;;;;1.48;0.90;;;;;;;;;;5126988;28;20044;-79
2023/04/07 15:12:49;;;;;;;1.42;0.70;;;;;;;;;;5129312;27;20506;-74
2023/04/07 15:15:21;;;;;;;4.85;0.77;;;;;;;;;;5131630;27;20058;-75
2023/04/07 15:17:52;;;;;;;1.58;0.80;;;;;;;;;;5131501;27;20039;-74
2023/04/07 15:20:22;;;;;;;1.45;0.63;;;;;;;;;;5131349;27;20058;-74